.
WxDataArchive / Data Records for 2011-10-27
2011-10-26 October 2011 2011-10-28

Data Records for Thursday, 27 October 2011

Time	Temp	Chill	HIndex	Humid	Dewpt	 Wind 	HiWind	WindDir	Rain 	Barom 
-----	----	-----	------	-----	-----	------	------	-------	-----	----- 
00:00	47.6	47.6	47.6	92	45.4	0	1	270	0.00	29.852 
00:05	47.6	47.6	47.6	92	45.4	0	1	---	0.00	29.852 
00:10	47.6	47.6	47.6	92	45.4	0	1	270	0.00	29.852 
00:15	47.6	47.6	47.6	92	45.4	0	0	---	0.00	29.856 
00:20	47.6	47.6	47.6	92	45.4	0	1	270	0.00	29.856 
00:25	47.6	47.6	47.6	92	45.4	0	1	270	0.00	29.856 
00:30	47.6	47.6	47.6	92	45.4	0	2	270	0.00	29.863 
00:35	47.4	47.4	47.4	92	45.2	0	1	270	0.00	29.863 
00:40	47.4	47.4	47.4	92	45.2	0	1	270	0.00	29.863 
00:45	47.3	47.3	47.3	92	45.1	0	1	270	0.00	29.857 
00:50	47.3	47.3	47.3	92	45.1	0	1	270	0.00	29.857 
00:55	47.1	47.1	47.1	92	44.9	0	2	270	0.00	29.857 
01:00	47.1	47.1	47.1	92	44.9	0	3	112	0.00	29.850 
01:05	47.0	47.0	47.0	91	44.5	0	1	112	0.00	29.850 
01:10	46.8	46.8	46.8	91	44.3	0	3	112	0.00	29.850 
01:15	46.5	46.5	46.5	90	43.7	0	2	112	0.00	29.858 
01:20	46.5	46.5	46.5	90	43.7	0	3	90	0.00	29.858 
01:25	46.4	46.4	46.4	90	43.6	0	1	90	0.00	29.858 
01:30	46.2	46.2	46.2	90	43.4	0	1	90	0.00	29.860 
01:35	46.2	46.2	46.2	90	43.4	0	1	90	0.00	29.860 
01:40	46.2	46.2	46.2	89	43.1	0	1	90	0.00	29.860 
01:45	46.1	46.1	46.1	89	43.0	0	2	90	0.00	29.848 
01:50	46.0	46.0	46.0	89	42.9	0	2	68	0.00	29.848 
01:55	46.0	46.0	46.0	89	42.9	0	2	68	0.00	29.848 
02:00	45.8	45.8	45.8	89	42.7	0	2	68	0.00	29.857 
02:05	45.8	45.8	45.8	89	42.7	0	3	68	0.00	29.857 
02:10	45.8	45.8	45.8	89	42.7	0	2	45	0.00	29.857 
02:15	45.8	45.8	45.8	89	42.7	0	2	45	0.00	29.863 
02:20	45.8	45.8	45.8	88	42.5	0	4	45	0.00	29.863 
02:25	45.7	45.7	45.7	88	42.4	1	4	338	0.00	29.863 
02:30	45.7	45.7	45.7	88	42.4	0	3	22	0.00	29.873 
02:35	45.7	45.7	45.7	88	42.4	0	3	292	0.00	29.873 
02:40	45.7	45.7	45.7	88	42.4	0	2	292	0.00	29.873 
02:45	45.7	45.7	45.7	88	42.4	0	1	292	0.00	29.857 
02:50	45.5	45.5	45.5	88	42.2	0	3	292	0.00	29.857 
02:55	45.5	45.5	45.5	87	41.9	0	2	90	0.00	29.857 
03:00	45.5	45.5	45.5	87	41.9	0	2	90	0.00	29.854 
03:05	45.4	45.4	45.4	87	41.8	0	1	90	0.00	29.854 
03:10	45.4	45.4	45.4	87	41.8	0	3	90	0.00	29.854 
03:15	45.4	45.4	45.4	87	41.8	0	1	90	0.00	29.866 
03:20	45.4	45.4	45.4	87	41.8	0	1	90	0.00	29.866 
03:25	45.2	45.2	45.2	87	41.6	0	2	90	0.00	29.866 
03:30	45.2	45.2	45.2	87	41.6	0	4	90	0.00	29.857 
03:35	45.2	45.2	45.2	87	41.6	0	1	90	0.00	29.857 
03:40	45.2	45.2	45.2	87	41.6	0	2	90	0.00	29.857 
03:45	45.2	45.2	45.2	87	41.6	0	2	90	0.00	29.855 
03:50	45.1	45.1	45.1	87	41.5	0	2	90	0.00	29.855 
03:55	45.1	45.1	45.1	87	41.5	0	2	90	0.00	29.855 
04:00	44.9	44.9	44.9	86	41.0	0	3	90	0.00	29.861 
04:05	44.9	44.9	44.9	87	41.3	0	5	158	0.00	29.861 
04:10	44.9	44.9	44.9	86	41.0	0	2	158	0.00	29.861 
04:15	44.9	44.9	44.9	87	41.3	0	2	158	0.00	29.867 
04:20	44.9	44.9	44.9	86	41.0	0	3	68	0.00	29.867 
04:25	44.9	44.9	44.9	86	41.0	0	2	68	0.00	29.867 
04:30	44.9	44.9	44.9	86	41.0	0	2	68	0.00	29.869 
04:35	44.8	44.8	44.8	86	40.9	1	5	68	0.00	29.869 
04:40	44.8	44.8	44.8	86	40.9	0	1	135	0.00	29.869 
04:45	44.8	44.8	44.8	86	40.9	0	1	135	0.00	29.869 
04:50	44.8	44.8	44.8	86	40.9	0	1	135	0.00	29.869 
04:55	44.6	44.6	44.6	85	40.4	0	1	135	0.00	29.869 
05:00	44.6	44.6	44.6	86	40.7	0	2	90	0.00	29.863 
05:05	44.6	44.6	44.6	85	40.4	0	5	270	0.00	29.863 
05:10	44.6	44.6	44.6	85	40.4	0	1	270	0.00	29.863 
05:15	44.6	44.6	44.6	85	40.4	0	1	270	0.00	29.867 
05:20	44.6	44.6	44.6	85	40.4	0	2	270	0.00	29.867 
05:25	44.6	44.6	44.6	85	40.4	0	2	270	0.00	29.867 
05:30	44.6	44.6	44.6	86	40.7	0	2	315	0.00	29.863 
05:35	44.6	44.6	44.6	86	40.7	0	3	135	0.00	29.863 
05:40	44.5	44.5	44.5	86	40.6	1	4	112	0.00	29.863 
05:45	44.5	44.5	44.5	86	40.6	0	1	112	0.00	29.873 
05:50	44.3	44.3	44.3	87	40.7	0	1	112	0.00	29.873 
05:55	44.3	44.3	44.3	87	40.7	0	1	112	0.00	29.873 
06:00	44.3	44.3	44.3	87	40.7	0	2	112	0.00	29.871 
06:05	44.3	44.3	44.3	87	40.7	0	0	---	0.00	29.871 
06:10	44.3	44.3	44.3	87	40.7	0	1	112	0.00	29.871 
06:15	44.2	44.2	44.2	87	40.6	0	2	112	0.00	29.880 
06:20	44.2	44.2	44.2	87	40.6	0	1	112	0.00	29.880 
06:25	44.1	44.1	44.1	87	40.5	0	1	112	0.00	29.880 
06:30	43.9	43.9	43.9	87	40.3	0	2	112	0.00	29.891 
06:35	43.9	43.9	43.9	87	40.3	0	1	112	0.00	29.891 
06:40	43.8	43.8	43.8	87	40.2	0	1	112	0.00	29.891 
06:45	43.6	43.6	43.6	87	40.0	0	2	270	0.00	29.889 
06:50	43.6	43.6	43.6	87	40.0	0	1	270	0.01	29.889 
06:55	43.6	43.6	43.6	88	40.3	0	1	315	0.00	29.889 
07:00	43.5	43.5	43.5	88	40.2	0	1	315	0.00	29.887 
07:05	43.5	43.5	43.5	88	40.2	0	1	315	0.00	29.887 
07:10	43.3	43.3	43.3	88	40.0	0	1	315	0.00	29.887 
07:15	43.2	43.2	43.2	89	40.2	0	1	315	0.00	29.885 
07:20	43.1	43.1	43.1	89	40.1	0	1	315	0.00	29.885 
07:25	43.1	43.1	43.1	89	40.1	0	1	315	0.00	29.885 
07:30	42.9	42.9	42.9	89	39.9	0	3	315	0.00	29.894 
07:35	42.8	42.8	42.8	90	40.1	0	1	315	0.00	29.894 
07:40	42.8	42.8	42.8	90	40.1	0	2	315	0.00	29.894 
07:45	42.6	42.6	42.6	90	39.9	0	1	315	0.00	29.887 
07:50	42.6	42.6	42.6	90	39.9	0	2	315	0.01	29.887 
07:55	42.5	42.5	42.5	90	39.8	0	2	315	0.00	29.887 
08:00	42.5	42.5	42.5	90	39.8	0	2	315	0.00	29.892 
08:05	42.3	42.3	42.3	91	39.9	0	2	315	0.00	29.892 
08:10	42.3	42.3	42.3	91	39.9	0	1	315	0.00	29.892 
08:15	42.3	42.3	42.3	91	39.9	0	1	315	0.00	29.890 
08:20	42.3	42.3	42.3	91	39.9	0	2	315	0.00	29.890 
08:25	42.2	42.2	42.2	91	39.8	0	1	315	0.00	29.890 
08:30	42.2	42.2	42.2	91	39.8	0	1	315	0.00	29.892 
08:35	42.1	42.1	42.1	91	39.7	0	4	315	0.01	29.892 
08:40	42.1	42.1	42.1	91	39.7	0	2	270	0.00	29.892 
08:45	41.9	41.9	41.9	91	39.5	1	4	338	0.00	29.906 
08:50	41.9	41.9	41.9	91	39.5	0	2	292	0.00	29.906 
08:55	41.9	41.9	41.9	91	39.5	0	1	292	0.00	29.906 
09:00	41.9	41.9	41.9	91	39.5	1	3	292	0.00	29.911 
09:05	41.9	41.9	41.9	91	39.5	0	3	292	0.00	29.911 
09:10	41.9	41.9	41.9	91	39.5	0	3	292	0.00	29.911 
09:15	41.9	41.9	41.9	91	39.5	0	2	292	0.00	29.929 
09:20	41.8	41.8	41.8	91	39.4	1	5	338	0.01	29.929 
09:25	41.6	41.6	41.6	90	38.9	1	3	0	0.00	29.929 
09:30	41.5	41.5	41.5	90	38.8	0	2	338	0.00	29.947 
09:35	41.5	41.5	41.5	90	38.8	0	1	338	0.00	29.947 
09:40	41.2	41.2	41.2	89	38.2	1	3	338	0.01	29.947 
09:45	41.2	41.2	41.2	89	38.2	0	3	338	0.00	29.948 
09:50	41.2	41.2	41.2	90	38.5	0	1	338	0.00	29.948 
09:55	41.3	41.3	41.3	90	38.6	0	1	338	0.00	29.948 
10:00	41.2	41.2	41.2	90	38.5	0	2	338	0.01	29.937 
10:05	41.2	41.2	41.2	90	38.5	0	3	338	0.00	29.937 
10:10	41.2	41.2	41.2	90	38.5	0	1	338	0.00	29.937 
10:15	41.2	41.2	41.2	90	38.5	1	3	338	0.01	29.948 
10:20	41.2	41.2	41.2	90	38.5	0	1	0	0.00	29.948 
10:25	41.1	41.1	41.1	90	38.4	1	3	0	0.00	29.948 
10:30	40.9	40.9	40.9	90	38.2	0	2	0	0.00	29.954 
10:35	40.9	40.9	40.9	90	38.2	0	2	0	0.00	29.954 
10:40	41.1	41.1	41.1	90	38.4	0	1	0	0.00	29.954 
10:45	40.9	40.9	40.9	89	37.9	0	2	0	0.00	29.954 
10:50	40.8	40.8	40.8	89	37.8	0	2	0	0.00	29.954 
10:55	40.9	40.9	40.9	89	37.9	0	2	292	0.00	29.954 
11:00	41.1	41.1	41.1	90	38.4	0	3	292	0.00	29.957 
11:05	41.2	41.2	41.2	90	38.5	0	3	292	0.01	29.957 
11:10	41.2	41.2	41.2	90	38.5	1	3	0	0.00	29.957 
11:15	41.2	41.2	41.2	90	38.5	0	2	0	0.00	29.959 
11:20	41.3	41.3	41.3	90	38.6	0	2	0	0.00	29.959 
11:25	41.3	41.3	41.3	90	38.6	1	2	0	0.00	29.959 
11:30	41.3	41.3	41.3	90	38.6	1	3	338	0.01	29.964 
11:35	41.3	41.3	41.3	90	38.6	0	3	338	0.00	29.964 
11:40	41.5	41.5	41.5	90	38.8	0	2	22	0.00	29.964 
11:45	41.6	41.6	41.6	90	38.9	0	3	270	0.00	29.965 
11:50	41.5	41.5	41.5	90	38.8	1	4	315	0.00	29.965 
11:55	41.5	41.5	41.5	90	38.8	1	5	0	0.00	29.965 
12:00	41.5	41.5	41.5	89	38.5	1	4	0	0.00	29.967 
12:05	41.8	41.8	41.8	89	38.8	1	3	0	0.00	29.967 
12:10	41.9	41.9	41.9	89	38.9	1	4	315	0.00	29.967 
12:15	42.1	42.1	42.1	89	39.1	1	4	270	0.00	29.978 
12:20	42.2	42.2	42.2	88	38.9	1	3	315	0.00	29.978 
12:25	42.3	42.3	42.3	88	39.0	0	2	22	0.00	29.978 
12:30	42.5	42.5	42.5	88	39.2	0	1	22	0.00	29.979 
12:35	42.6	42.6	42.6	88	39.3	1	4	0	0.00	29.979 
12:40	43.1	43.1	43.1	88	39.8	0	2	270	0.00	29.979 
12:45	43.3	43.3	43.3	88	40.0	0	2	0	0.00	29.978 
12:50	43.5	43.5	43.5	87	39.9	0	1	338	0.00	29.978 
12:55	43.8	43.8	43.8	87	40.2	0	1	338	0.00	29.978 
13:00	44.1	44.1	44.1	84	39.6	0	3	338	0.00	29.971 
13:05	44.3	44.3	44.3	83	39.5	0	2	0	0.00	29.971 
13:10	44.5	44.5	44.5	81	39.0	0	2	0	0.00	29.971 
13:15	44.8	44.8	44.8	78	38.4	1	4	315	0.00	29.972 
13:20	45.1	45.1	45.1	77	38.3	1	5	22	0.00	29.972 
13:25	44.9	44.9	44.9	74	37.1	1	4	338	0.00	29.972 
13:30	45.2	45.2	45.2	74	37.4	1	3	0	0.00	29.972 
13:35	45.4	45.4	45.4	73	37.3	1	4	315	0.00	29.972 
13:40	45.2	45.2	45.2	71	36.4	1	5	270	0.00	29.972 
13:45	45.2	45.2	45.2	73	37.1	0	2	270	0.00	29.967 
13:50	45.7	45.7	45.7	72	37.2	1	3	270	0.00	29.967 
13:55	46.1	46.1	46.1	72	37.6	0	3	22	0.00	29.967 
14:00	46.2	46.2	46.2	66	35.5	2	5	270	0.00	29.964 
14:05	46.5	46.5	46.5	68	36.5	1	3	292	0.00	29.964 
14:10	46.7	46.7	46.7	67	36.3	1	3	270	0.00	29.964 
14:15	46.8	46.8	46.8	65	35.7	1	6	270	0.00	29.966 
14:20	46.5	46.5	46.5	67	36.1	1	3	45	0.00	29.966 
14:25	45.8	45.8	45.8	67	35.5	1	3	68	0.00	29.966 
14:30	45.2	45.2	45.2	66	34.5	1	3	22	0.00	29.975 
14:35	45.4	45.4	45.4	67	35.1	0	2	270	0.00	29.975 
14:40	46.1	46.1	46.1	68	36.1	0	2	292	0.00	29.975 
14:45	46.7	46.7	46.7	65	35.6	1	5	112	0.00	29.972 
14:50	47.0	47.0	47.0	65	35.9	0	3	90	0.00	29.972 
14:55	47.0	47.0	47.0	65	35.9	0	2	90	0.00	29.972 
15:00	47.0	47.0	47.0	65	35.9	0	2	90	0.00	29.977 
15:05	46.7	46.7	46.7	66	36.0	1	3	338	0.00	29.977 
15:10	46.2	46.2	46.2	69	36.6	0	2	338	0.00	29.977 
15:15	46.2	46.2	46.2	69	36.6	0	2	338	0.00	29.983 
15:20	46.2	46.2	46.2	67	35.9	0	3	338	0.00	29.983 
15:25	46.5	46.5	46.5	67	36.1	1	3	270	0.00	29.983 
15:30	46.7	46.7	46.7	65	35.6	1	3	270	0.00	29.986 
15:35	46.8	46.8	46.8	62	34.5	1	3	270	0.00	29.986 
15:40	47.1	47.1	47.1	62	34.8	1	4	248	0.00	29.986 
15:45	47.4	47.4	47.4	60	34.2	2	5	248	0.00	29.989 
15:50	47.9	47.9	47.9	60	34.7	1	4	270	0.00	29.989 
15:55	48.0	48.0	48.0	60	34.8	1	4	292	0.00	29.989 
16:00	47.9	47.9	47.9	59	34.3	0	3	338	0.00	29.988 
16:05	47.6	47.6	47.6	60	34.4	1	2	270	0.00	29.988 
16:10	47.6	47.6	47.6	61	34.8	0	2	270	0.00	29.988 
16:15	47.3	47.3	47.3	61	34.5	1	5	292	0.00	29.989 
16:20	47.4	47.4	47.4	61	34.6	1	3	292	0.00	29.989 
16:25	47.9	47.9	47.9	62	35.5	1	3	292	0.00	29.989 
16:30	48.2	48.2	48.2	60	35.0	0	1	292	0.00	29.994 
16:35	48.3	48.3	48.3	59	34.6	0	1	292	0.00	29.994 
16:40	48.5	48.5	48.5	59	34.8	0	3	292	0.00	29.994 
16:45	48.5	48.5	48.5	60	35.3	1	4	292	0.00	29.995 
16:50	48.2	48.2	48.2	59	34.6	0	3	292	0.00	29.995 
16:55	48.0	48.0	48.0	59	34.4	1	3	292	0.00	29.995 
17:00	47.7	47.7	47.7	60	34.5	0	1	292	0.00	30.000 
17:05	47.4	47.4	47.4	61	34.6	0	1	292	0.00	30.000 
17:10	47.1	47.1	47.1	62	34.8	0	0	---	0.00	30.000 
17:15	47.1	47.1	47.1	63	35.2	0	1	292	0.00	30.009 
17:20	47.4	47.4	47.4	60	34.2	0	1	292	0.00	30.009 
17:25	47.6	47.6	47.6	59	34.0	0	2	292	0.00	30.009 
17:30	47.9	47.9	47.9	57	33.4	0	1	292	0.00	30.013 
17:35	48.2	48.2	48.2	55	32.8	0	1	292	0.00	30.013 
17:40	48.2	48.2	48.2	55	32.8	0	1	292	0.00	30.013 
17:45	48.3	48.3	48.3	55	32.9	0	1	292	0.00	30.017 
17:50	48.2	48.2	48.2	55	32.8	0	3	22	0.00	30.017 
17:55	48.2	48.2	48.2	55	32.8	0	2	0	0.00	30.017 
18:00	48.0	48.0	48.0	56	33.1	0	1	0	0.00	30.022 
18:05	48.0	48.0	48.0	57	33.5	0	3	135	0.00	30.022 
18:10	47.7	47.7	47.7	57	33.2	0	1	135	0.00	30.022 
18:15	47.6	47.6	47.6	56	32.7	0	1	45	0.00	30.030 
18:20	47.3	47.3	47.3	56	32.4	0	2	45	0.00	30.030 
18:25	47.1	47.1	47.1	57	32.7	0	1	22	0.00	30.030 
18:30	47.0	47.0	47.0	58	33.0	0	1	22	0.00	30.046 
18:35	46.8	46.8	46.8	59	33.2	0	1	22	0.00	30.046 
18:40	46.7	46.7	46.7	60	33.6	0	0	---	0.00	30.046 
18:45	46.4	46.4	46.4	60	33.3	0	0	---	0.00	30.063 
18:50	46.4	46.4	46.4	61	33.7	0	0	---	0.00	30.063 
18:55	46.2	46.2	46.2	61	33.5	0	0	---	0.00	30.063 
19:00	46.2	46.2	46.2	61	33.5	0	1	22	0.00	30.072 
19:05	46.2	46.2	46.2	62	33.9	0	2	22	0.00	30.072 
19:10	46.2	46.2	46.2	62	33.9	0	2	22	0.00	30.072 
19:15	46.2	46.2	46.2	62	33.9	0	1	22	0.00	30.079 
19:20	46.1	46.1	46.1	62	33.8	0	1	22	0.00	30.079 
19:25	46.0	46.0	46.0	62	33.7	0	1	22	0.00	30.079 
19:30	45.7	45.7	45.7	63	33.8	0	0	---	0.00	30.081 
19:35	45.5	45.5	45.5	63	33.6	0	0	---	0.00	30.081 
19:40	45.2	45.2	45.2	64	33.8	0	0	---	0.00	30.081 
19:45	44.9	44.9	44.9	65	33.9	0	0	---	0.00	30.094 
19:50	44.5	44.5	44.5	66	33.9	0	0	---	0.00	30.094 
19:55	44.1	44.1	44.1	67	33.9	0	0	---	0.00	30.094 
20:00	43.6	43.6	43.6	69	34.1	0	0	---	0.00	30.098 
20:05	43.1	43.1	43.1	70	34.0	0	0	---	0.00	30.098 
20:10	42.6	42.6	42.6	72	34.2	0	0	---	0.00	30.098 
20:15	42.2	42.2	42.2	74	34.5	0	0	---	0.00	30.111 
20:20	41.8	41.8	41.8	75	34.5	0	0	---	0.00	30.111 
20:25	41.3	41.3	41.3	77	34.6	0	0	---	0.00	30.111 
20:30	41.1	41.1	41.1	77	34.4	0	0	---	0.00	30.114 
20:35	40.8	40.8	40.8	79	34.8	0	0	---	0.00	30.114 
20:40	40.5	40.5	40.5	80	34.8	0	0	---	0.00	30.114 
20:45	40.1	40.1	40.1	80	34.4	0	0	---	0.00	30.117 
20:50	39.9	39.9	39.9	81	34.6	0	0	---	0.00	30.117 
20:55	39.6	39.6	39.6	81	34.3	0	0	---	0.00	30.117 
21:00	39.5	39.5	39.5	82	34.5	0	0	---	0.00	30.119 
21:05	39.3	39.3	39.3	82	34.3	0	0	---	0.00	30.119 
21:10	39.2	39.2	39.2	83	34.5	0	0	---	0.00	30.119 
21:15	38.9	38.9	38.9	83	34.2	0	0	---	0.00	30.124 
21:20	38.8	38.8	38.8	83	34.1	0	0	---	0.00	30.124 
21:25	38.6	38.6	38.6	84	34.2	0	0	---	0.00	30.124 
21:30	38.5	38.5	38.5	84	34.1	0	0	---	0.00	30.124 
21:35	38.3	38.3	38.3	84	33.9	0	0	---	0.00	30.124 
21:40	38.2	38.2	38.2	85	34.1	0	0	---	0.00	30.124 
21:45	38.0	38.0	38.0	85	33.9	0	0	---	0.00	30.129 
21:50	38.0	38.0	38.0	85	33.9	0	0	---	0.00	30.129 
21:55	37.9	37.9	37.9	85	33.8	0	0	---	0.00	30.129 
22:00	37.8	37.8	37.8	86	34.0	0	0	---	0.00	30.134 
22:05	37.8	37.8	37.8	86	34.0	0	0	---	0.00	30.134 
22:10	37.6	37.6	37.6	86	33.8	0	0	---	0.00	30.134 
22:15	37.5	37.5	37.5	86	33.7	0	0	---	0.00	30.139 
22:20	37.5	37.5	37.5	86	33.7	0	0	---	0.00	30.139 
22:25	37.3	37.3	37.3	86	33.5	0	0	---	0.00	30.139 
22:30	37.3	37.3	37.3	86	33.5	0	0	---	0.00	30.145 
22:35	37.2	37.2	37.2	86	33.4	0	0	---	0.00	30.145 
22:40	37.2	37.2	37.2	86	33.4	0	0	---	0.00	30.145 
22:45	37.2	37.2	37.2	86	33.4	0	0	---	0.00	30.148 
22:50	37.2	37.2	37.2	86	33.4	0	0	---	0.00	30.148 
22:55	37.0	37.0	37.0	87	33.5	0	0	---	0.00	30.148 
23:00	36.9	36.9	36.9	86	33.1	0	0	---	0.00	30.150 
23:05	36.8	36.8	36.8	86	33.0	0	0	---	0.00	30.150 
23:10	36.6	36.6	36.6	87	33.1	0	0	---	0.00	30.150 
23:15	36.5	36.5	36.5	87	33.0	0	0	---	0.00	30.152 
23:20	36.3	36.3	36.3	87	32.8	0	0	---	0.00	30.152 
23:25	36.2	36.2	36.2	87	32.7	0	0	---	0.00	30.152 
23:30	36.0	36.0	36.0	88	32.8	0	0	---	0.00	30.151 
23:35	35.9	35.9	35.9	88	32.7	0	0	---	0.00	30.151 
23:40	35.9	35.9	35.9	88	32.7	0	0	---	0.00	30.151 
23:45	35.9	35.9	35.9	88	32.7	0	0	---	0.00	30.148 
23:50	35.9	35.9	35.9	89	33.0	0	0	---	0.00	30.148 
23:55	36.0	36.0	36.0	89	33.1	0	0	---	0.00	30.148 

CoCoRaHS
IN-AL-39
A2 Web Hosting
Creative Commons License
GoDaddy
search engine by freefind advanced

loaded 2018-11-12 20:29:14 • last modified 2010-11-18 10:43:29
Privacy PolicyDisclaimer
• wx.awcolley.com is powered by PmWiki v.2002016 •
• all content (unless otherwise noted) © 2018 A W Colley